Weather History for KDZB - July, 2013

Change the Weather History Date:

Tuesday, July 23, 2013

  Actual Average (KBMQ) Record (KBMQ)
Temperature  
Mean Temperature 86 °F -  
Max Temperature 96 °F 92 °F 100 °F (2001)
Min Temperature 77 °F 70 °F 70 °F (2000)
Cooling Degree Days 22    
Growing Degree Days 36 (Base 50)    
Moisture  
Dew Point 66 °F    
Average Humidity 55    
Maximum Humidity 79    
Minimum Humidity 28    
Precipitation  
Precipitation 0.00 in - - ()
Sea Level Pressure  
Sea Level Pressure 29.96 in    
Wind  
Wind Speed 8 mph (South)    
Max Wind Speed 13 mph    
Max Gust Speed 23 mph    
Visibility 10 miles    
Events      
Averages and records for this station are not official NWS values.
T = Trace of Precipitation, MM = Missing Value Source: NWS Daily Summary

Daily Weather History Graph

Daily Weather History Graph

Search for Another Location

Airport or City:

Trip Planner

Search our weather history database for the weather conditions in past years. The results will help you decide how hot, cold, wet, or windy it might be!

Date:

Astronomy

Jul. 23, 2013 Rise Set
Actual Time 5:46 AM MDT 7:33 PM MDT
Civil Twilight 5:19 AM MDT 7:59 PM MDT
Nautical Twilight 4:47 AM MDT 8:31 PM MDT
Astronomical Twilight 4:13 AM MDT 9:05 PM MDT
Moon 8:13 PM MDT (7/23) 6:47 AM MDT (7/23)
Length of Visible Light 14h 40m
Length of Day
13h 47m
Full, 99% of the Moon is Illuminated
Jul 23
Full
Jul 29
Last Quarter
Aug 6
New
Aug 14
First Quarter
Aug 20
Full

Hourly Weather History & Observations

Time (MDT) Temp. Heat Index Dew Point Humidity Pressure Visibility Wind Dir Wind Speed Gust Speed Precip Events Conditions
12:15 AM 80.1 °F 83.8 °F 71.8 °F 76% 29.98 in 10.0 mi South 8.1 mph 20.7 mph N/A   Clear
12:35 AM 79.9 °F - 71.6 °F 76% 29.98 in 10.0 mi South 11.5 mph 18.4 mph N/A   Scattered Clouds
12:55 AM 80.1 °F 83.7 °F 71.6 °F 75% 29.98 in 10.0 mi South 12.7 mph 19.6 mph N/A   Scattered Clouds
1:15 AM 79.9 °F - 71.6 °F 76% 29.97 in 10.0 mi South 11.5 mph 19.6 mph N/A   Scattered Clouds
1:35 AM 79.7 °F - 71.2 °F 75% 29.97 in 10.0 mi South 8.1 mph 19.6 mph N/A   Mostly Cloudy
1:55 AM 79.2 °F - 70.9 °F 76% 29.97 in 10.0 mi South 8.1 mph 18.4 mph N/A   Scattered Clouds
2:15 AM 79.2 °F - 70.9 °F 76% 29.96 in 10.0 mi South 8.1 mph 16.1 mph N/A   Scattered Clouds
2:35 AM 79.0 °F - 70.9 °F 76% 29.97 in 10.0 mi South 9.2 mph - N/A   Scattered Clouds
2:55 AM 79.0 °F - 70.9 °F 76% 29.97 in 10.0 mi South 10.4 mph 17.3 mph N/A   Scattered Clouds
3:15 AM 78.8 °F - 70.9 °F 77% 29.97 in 10.0 mi South 10.4 mph 16.1 mph N/A   Clear
3:35 AM 78.4 °F - 70.7 °F 77% 29.98 in 10.0 mi South 8.1 mph 17.3 mph N/A   Clear
3:55 AM 78.3 °F - 70.7 °F 77% 29.98 in 10.0 mi South 9.2 mph - N/A   Clear
4:15 AM 77.9 °F - 70.3 °F 77% 29.98 in 7.0 mi South 8.1 mph 17.3 mph N/A   Clear
4:35 AM 77.9 °F - 70.0 °F 76% 29.98 in 10.0 mi South 8.1 mph - N/A   Clear
4:55 AM 77.5 °F - 70.0 °F 77% 29.98 in 10.0 mi South 6.9 mph - N/A   Clear
5:15 AM 77.2 °F - 69.8 °F 78% 29.99 in 7.0 mi South 9.2 mph - N/A   Clear
5:35 AM 77.2 °F - 69.8 °F 78% 30.00 in 10.0 mi South 6.9 mph - N/A   Clear
5:55 AM 77.0 °F - 69.8 °F 78% 30.00 in 7.0 mi South 4.6 mph - N/A   Clear
6:15 AM 77.0 °F - 70.0 °F 79% 30.00 in 7.0 mi Calm Calm - N/A   Scattered Clouds
6:35 AM 77.4 °F - 70.2 °F 78% 30.00 in 7.0 mi South 5.8 mph - N/A   Overcast
6:55 AM 78.3 °F - 70.0 °F 76% 29.99 in 7.0 mi South 5.8 mph - N/A   Mostly Cloudy
7:15 AM 79.2 °F - 70.0 °F 73% 30.00 in 7.0 mi SSW 5.8 mph - N/A   Overcast
7:35 AM 80.2 °F 83.3 °F 69.8 °F 70% 30.00 in 7.0 mi SSW 8.1 mph - N/A   Mostly Cloudy
7:55 AM 80.6 °F 83.8 °F 69.4 °F 69% 30.01 in 7.0 mi South 8.1 mph 18.4 mph N/A   Overcast
8:15 AM 81.7 °F 85.1 °F 69.3 °F 66% 30.02 in 10.0 mi South 8.1 mph - N/A   Overcast
8:35 AM 83.1 °F 86.6 °F 69.1 °F 62% 30.02 in 10.0 mi South 8.1 mph - N/A   Mostly Cloudy
8:55 AM 83.3 °F 86.9 °F 69.3 °F 62% 30.02 in 7.0 mi SSW 5.8 mph - N/A   Scattered Clouds
9:15 AM 84.4 °F 88.2 °F 68.9 °F 60% 30.02 in 10.0 mi South 9.2 mph - N/A   Scattered Clouds
9:35 AM 85.3 °F 88.5 °F 68.2 °F 56% 30.01 in 7.0 mi SSE 10.4 mph 18.4 mph N/A   Scattered Clouds
9:55 AM 86.0 °F 89.1 °F 67.5 °F 54% 30.01 in 10.0 mi SSW 6.9 mph - N/A   Scattered Clouds
10:15 AM 86.9 °F 89.9 °F 67.5 °F 52% 30.01 in 7.0 mi South 8.1 mph - N/A   Clear
10:35 AM 88.3 °F 91.6 °F 67.3 °F 50% 30.01 in 10.0 mi South 6.9 mph 17.3 mph N/A   Clear
10:55 AM 88.5 °F 91.6 °F 67.1 °F 49% 30.01 in 10.0 mi South 5.8 mph 16.1 mph N/A   Clear
11:15 AM 89.1 °F 91.7 °F 66.2 °F 47% 30.01 in 10.0 mi SSE 9.2 mph 16.1 mph N/A   Clear
11:35 AM 90.3 °F 92.6 °F 65.8 °F 44% 30.00 in 10.0 mi South 5.8 mph - N/A   Clear
11:55 AM 90.9 °F 92.0 °F 63.7 °F 40% 30.00 in 10.0 mi SSW 3.5 mph 16.1 mph N/A   Clear
12:15 PM 92.3 °F 94.3 °F 64.6 °F 40% 29.99 in 10.0 mi South 9.2 mph - N/A   Clear
12:35 PM 91.9 °F 92.5 °F 62.1 °F 37% 29.99 in 10.0 mi SSE 9.2 mph 17.3 mph N/A   Clear
12:55 PM 92.5 °F 93.0 °F 62.2 °F 36% 29.98 in 10.0 mi South 9.2 mph 16.1 mph N/A   Clear
1:15 PM 93.4 °F 93.5 °F 61.3 °F 34% 29.97 in 10.0 mi South 8.1 mph 17.3 mph N/A   Clear
1:35 PM 94.5 °F 95.2 °F 61.7 °F 34% 29.97 in 10.0 mi South 11.5 mph 19.6 mph N/A   Clear
2:15 PM 94.8 °F 94.5 °F 60.1 °F 31% 29.96 in 10.0 mi South 12.7 mph 23.0 mph N/A   Clear
2:35 PM 95.7 °F 95.9 °F 60.6 °F 31% 29.95 in 10.0 mi South 9.2 mph - N/A   Clear
2:55 PM 95.9 °F 96.1 °F 61.0 °F 31% 29.95 in 10.0 mi South 8.1 mph 19.6 mph N/A   Clear
3:15 PM 96.1 °F 96.4 °F 60.6 °F 31% 29.94 in 10.0 mi South 12.7 mph 19.6 mph N/A   Clear
3:35 PM 95.9 °F 95.7 °F 59.7 °F 30% 29.93 in 10.0 mi South 10.4 mph 17.3 mph N/A   Clear
3:55 PM 96.3 °F 95.9 °F 59.4 °F 29% 29.93 in 10.0 mi South 10.4 mph 19.6 mph N/A   Clear
4:15 PM 95.9 °F 94.9 °F 58.3 °F 28% 29.92 in 10.0 mi SSE 12.7 mph 19.6 mph N/A   Clear
4:35 PM 96.1 °F 96.0 °F 59.5 °F 30% 29.92 in 10.0 mi SSE 10.4 mph - N/A   Clear
4:55 PM 95.7 °F 95.5 °F 59.5 °F 30% 29.91 in 10.0 mi South 6.9 mph 17.3 mph N/A   Clear
5:15 PM 95.5 °F 95.6 °F 60.3 °F 31% 29.91 in 10.0 mi South 10.4 mph 19.6 mph N/A   Clear
5:35 PM 95.4 °F 95.3 °F 60.4 °F 31% 29.90 in 10.0 mi South 4.6 mph 16.1 mph N/A   Clear
5:55 PM 94.5 °F 94.4 °F 60.4 °F 32% 29.90 in 10.0 mi South 8.1 mph - N/A   Clear
6:15 PM 93.9 °F 94.0 °F 61.2 °F 33% 29.90 in 10.0 mi South 6.9 mph - N/A   Clear
6:35 PM 92.8 °F 92.8 °F 61.0 °F 34% 29.90 in 10.0 mi SSE 5.8 mph - N/A   Clear
6:55 PM 91.6 °F 91.6 °F 60.8 °F 36% 29.89 in 10.0 mi South 6.9 mph - N/A   Clear
7:15 PM 90.0 °F 90.0 °F 61.5 °F 38% 29.88 in 10.0 mi SSE 6.9 mph - N/A   Clear
7:35 PM 88.2 °F 88.4 °F 61.9 °F 41% 29.88 in 10.0 mi SSE 4.6 mph - N/A   Clear
7:55 PM 86.4 °F 87.0 °F 62.6 °F 45% 29.88 in 10.0 mi SSE 4.6 mph - N/A   Clear
8:15 PM 85.6 °F 86.1 °F 62.2 °F 45% 29.88 in 10.0 mi SSE 4.6 mph - N/A   Clear
8:35 PM 85.6 °F 86.1 °F 61.9 °F 45% 29.90 in 10.0 mi SSE 5.8 mph - N/A   Clear
8:55 PM 84.4 °F 85.2 °F 62.6 °F 48% 29.91 in 10.0 mi SSE 5.8 mph - N/A   Clear
9:15 PM 83.3 °F 84.3 °F 62.6 °F 50% 29.91 in 10.0 mi SSE 4.6 mph - N/A   Clear
9:35 PM 82.4 °F 83.5 °F 63.0 °F 52% 29.91 in 10.0 mi SSE 5.8 mph - N/A   Clear
9:55 PM 82.6 °F 83.8 °F 63.5 °F 52% 29.92 in 10.0 mi SSE 5.8 mph - N/A   Clear
10:15 PM 82.9 °F 84.8 °F 65.5 °F 55% 29.91 in 10.0 mi SSE 11.5 mph 17.3 mph N/A   Clear
10:35 PM 82.4 °F 85.0 °F 67.1 °F 60% 29.92 in 10.0 mi SSE 9.2 mph - N/A   Clear
10:55 PM 81.7 °F 84.7 °F 68.5 °F 64% 29.92 in 10.0 mi SSE 9.2 mph - N/A   Clear
11:15 PM 81.5 °F 85.1 °F 70.2 °F 68% 29.92 in 10.0 mi South 6.9 mph - N/A   Clear
11:35 PM 81.5 °F 85.5 °F 71.1 °F 70% 29.92 in 10.0 mi South 8.1 mph - N/A   Clear
11:55 PM 81.0 °F 85.1 °F 71.6 °F 73% 29.92 in 10.0 mi South 10.4 mph 17.3 mph N/A   Clear